Terminal Aerodrome Forecast
Issued by NWS St Louis, MO

Home | Current Version | Previous Version | Text Only | Print | Product List | Glossary On
Versions: 1 2 3 4 5 6 7 8 9 10 11 12 13 14 15 16 17 18 19 20 21
000
FTUS43 KLSX 161916 AAA
TAFCOU
TAF AMD
KCOU 161916Z 1619/1718 13010KT 4SM BR VCTS OVC005CB
     FM162000 14010KT 5SM -SHRA BR OVC003
     FM170200 21007KT 2SM BR VCSH OVC003
     FM170400 23008KT 6SM BR OVC010
     FM171100 27009KT P6SM OVC003=

USA.gov is the U.S. government's official web portal to all federal, state and local government web resources and services.